Time;durP1;ratioP1;P1;durP2;ratioP2;P2;SDS_P1;SDS_P2;PMS_P1;PMS_P2;Temp;Humidity;BMP_temperature;BMP_pressure;BME280_temperature;BME280_humidity;BME280_pressure;Samples;Min_cycle;Max_cycle;Signal;HPM_P1;HPM_P2
2023/02/26 00:00:28;;;;;;;0.85;0.63;;;;;;;6.93;100.00;100736.75;7393901;19;20022;-54
2023/02/26 00:02:55;;;;;;;0.68;0.68;;;;;;;6.77;100.00;100733.97;7395659;19;20026;-54
2023/02/26 00:05:21;;;;;;;16.98;1.63;;;;;;;6.50;100.00;100731.34;7394241;19;20018;-54
2023/02/26 00:07:47;;;;;;;0.55;0.55;;;;;;;6.55;100.00;100743.91;7394271;19;20022;-54
2023/02/26 00:10:15;;;;;;;0.80;0.80;;;;;;;6.47;100.00;100740.53;7393923;19;20007;-54
2023/02/26 00:12:42;;;;;;;7.85;1.73;;;;;;;6.39;100.00;100741.09;7395215;19;20515;-54
2023/02/26 00:15:13;;;;;;;0.85;0.50;;;;;;;6.16;100.00;100750.22;7394829;19;20011;-53
2023/02/26 00:17:52;;;;;;;0.30;0.30;;;;;;;6.04;100.00;100754.38;7391083;19;20018;-54
2023/02/26 00:20:19;;;;;;;0.47;0.47;;;;;;;5.90;100.00;100757.41;7391506;19;20150;-55
2023/02/26 00:22:45;;;;;;;2.65;1.52;;;;;;;5.83;100.00;100754.72;7395908;19;20041;-55
2023/02/26 00:25:12;;;;;;;4.35;1.08;;;;;;;5.88;100.00;100745.19;7396390;19;20043;-54
2023/02/26 00:27:39;;;;;;;0.63;0.63;;;;;;;5.88;100.00;100751.50;7393088;19;20006;-55
2023/02/26 00:30:07;;;;;;;0.45;0.45;;;;;;;5.86;100.00;100762.22;7394161;19;20028;-54
2023/02/26 00:32:34;;;;;;;0.30;0.30;;;;;;;5.81;100.00;100756.34;7393754;19;20011;-54
2023/02/26 00:35:01;;;;;;;1.08;0.57;;;;;;;5.73;100.00;100755.69;7391292;19;20018;-54
2023/02/26 00:37:52;;;;;;;0.40;0.40;;;;;;;5.60;100.00;100754.72;7390760;19;20463;-54
2023/02/26 00:40:33;;;;;;;1.08;1.00;;;;;;;5.68;100.00;100755.38;7390971;19;20014;-54
2023/02/26 00:43:05;;;;;;;0.55;0.55;;;;;;;5.54;100.00;100753.66;7395209;19;20058;-54
2023/02/26 00:45:34;;;;;;;0.40;0.40;;;;;;;5.01;100.00;100767.47;7393761;19;20014;-54
2023/02/26 00:48:27;;;;;;;0.60;0.60;;;;;;;5.17;100.00;100762.13;7395124;19;20435;-54
2023/02/26 00:51:01;;;;;;;0.35;0.35;;;;;;;5.67;100.00;100767.66;7391010;19;20091;-54
2023/02/26 00:53:38;;;;;;;14.80;0.88;;;;;;;5.64;100.00;100762.94;7397061;19;20014;-54
2023/02/26 00:56:04;;;;;;;0.35;0.35;;;;;;;5.62;100.00;100768.91;7392078;19;20010;-54
2023/02/26 00:58:30;;;;;;;0.93;0.70;;;;;;;5.65;100.00;100765.28;7392182;19;20011;-54
2023/02/26 01:00:56;;;;;;;0.47;0.47;;;;;;;5.69;100.00;100770.78;7392188;19;20022;-54
2023/02/26 01:03:23;;;;;;;0.35;0.35;;;;;;;5.43;100.00;100764.09;7394664;19;20379;-54
2023/02/26 01:05:49;;;;;;;0.20;0.20;;;;;;;5.32;100.00;100769.00;7389088;19;20359;-55
2023/02/26 01:08:25;;;;;;;1.85;0.65;;;;;;;5.39;100.00;100777.19;7389408;19;20086;-55
2023/02/26 01:10:51;;;;;;;0.60;0.60;;;;;;;4.94;100.00;100775.81;7390597;19;20010;-55
2023/02/26 01:13:18;;;;;;;4.90;1.95;;;;;;;5.14;100.00;100785.81;7395051;19;20454;-56
2023/02/26 01:15:51;;;;;;;0.73;0.73;;;;;;;5.56;100.00;100789.94;7393005;19;20014;-54
2023/02/26 01:18:25;;;;;;;0.57;0.57;;;;;;;5.52;100.00;100788.41;7389388;19;20013;-54
2023/02/26 01:20:59;;;;;;;0.10;0.10;;;;;;;5.79;100.00;100787.19;7391628;19;20014;-55
2023/02/26 01:23:28;;;;;;;0.40;0.40;;;;;;;5.93;100.00;100784.19;7394579;19;20010;-55
2023/02/26 01:26:20;;;;;;;0.40;0.40;;;;;;;6.15;100.00;100786.59;7393585;19;20106;-55
2023/02/26 01:28:46;;;;;;;0.20;0.20;;;;;;;6.32;100.00;100794.56;7391637;19;20050;-54
2023/02/26 01:31:32;;;;;;;0.30;0.30;;;;;;;6.28;100.00;100798.59;7388747;19;20024;-53
2023/02/26 01:34:06;;;;;;;0.40;0.40;;;;;;;6.36;100.00;100795.28;7388004;19;20010;-54
2023/02/26 01:36:39;;;;;;;1.13;0.28;;;;;;;6.34;100.00;100796.91;7388998;19;20337;-54
2023/02/26 01:39:13;;;;;;;0.52;0.52;;;;;;;6.19;100.00;100792.84;7388057;19;20086;-53
2023/02/26 01:41:49;;;;;;;0.68;0.68;;;;;;;6.07;100.00;100799.75;7393962;19;20014;-54
2023/02/26 01:44:24;;;;;;;0.57;0.57;;;;;;;5.96;100.00;100796.38;7389724;19;20007;-54
2023/02/26 01:47:00;;;;;;;0.50;0.50;;;;;;;5.80;100.00;100799.03;7389340;19;20018;-54
2023/02/26 01:49:26;;;;;;;0.70;0.70;;;;;;;5.76;100.00;100812.88;7391469;19;20450;-54
2023/02/26 01:52:14;;;;;;;0.45;0.45;;;;;;;5.64;100.00;100805.19;7389544;19;20026;-55
2023/02/26 01:54:40;;;;;;;1.23;1.17;;;;;;;5.59;100.00;100800.13;7388572;19;20032;-53
2023/02/26 01:57:10;;;;;;;0.30;0.30;;;;;;;5.55;100.00;100799.41;7388923;19;20023;-53
2023/02/26 01:59:41;;;;;;;0.30;0.28;;;;;;;5.45;100.00;100811.41;7390799;19;20039;-53
2023/02/26 02:02:09;;;;;;;0.75;0.75;;;;;;;5.31;100.00;100811.59;7389894;19;20018;-53
2023/02/26 02:04:37;;;;;;;1.27;0.65;;;;;;;5.28;100.00;100809.69;7389130;19;20062;-53
2023/02/26 02:07:05;;;;;;;0.38;0.38;;;;;;;5.30;100.00;100805.31;7394944;19;20513;-54
2023/02/26 02:09:31;;;;;;;0.60;0.57;;;;;;;5.30;100.00;100815.56;7389191;19;20007;-53
2023/02/26 02:12:14;;;;;;;0.70;0.70;;;;;;;5.34;100.00;100817.09;7391370;19;20014;-53
2023/02/26 02:14:54;;;;;;;0.45;0.45;;;;;;;5.37;100.00;100818.25;7390600;19;20007;-53
2023/02/26 02:17:23;;;;;;;6.47;0.77;;;;;;;5.48;100.00;100812.56;7388920;19;20754;-53
2023/02/26 02:20:05;;;;;;;0.70;0.70;;;;;;;5.69;100.00;100817.75;7387820;19;20014;-53
2023/02/26 02:22:43;;;;;;;0.43;0.43;;;;;;;5.85;100.00;100820.66;7390361;19;20010;-54
2023/02/26 02:25:50;;;;;;;0.40;0.40;;;;;;;6.00;100.00;100814.47;7388066;19;20017;-54
2023/02/26 02:28:35;;;;;;;0.90;0.90;;;;;;;6.19;100.00;100826.03;7387989;19;20017;-53
2023/02/26 02:31:29;;;;;;;0.45;0.45;;;;;;;6.17;100.00;100823.69;7387465;19;20010;-54
2023/02/26 02:34:18;;;;;;;0.40;0.40;;;;;;;6.13;100.00;100816.66;7389040;19;20030;-54
2023/02/26 02:36:44;;;;;;;0.20;0.20;;;;;;;5.75;100.00;100827.91;7387192;19;20055;-52
2023/02/26 02:39:36;;;;;;;0.45;0.40;;;;;;;5.70;100.00;100825.63;7389825;19;20014;-52
2023/02/26 02:42:29;;;;;;;0.68;0.60;;;;;;;5.82;100.00;100819.50;7390190;19;20487;-51
2023/02/26 02:44:59;;;;;;;0.30;0.30;;;;;;;5.86;100.00;100828.56;7386545;19;20096;-53
2023/02/26 02:47:30;;;;;;;0.38;0.38;;;;;;;5.88;100.00;100828.91;7391029;19;20003;-52
2023/02/26 02:50:13;;;;;;;1.05;1.05;;;;;;;5.94;100.00;100832.75;7390913;19;20019;-52
2023/02/26 02:53:00;;;;;;;0.30;0.30;;;;;;;6.06;100.00;100839.69;7389023;19;20007;-52
2023/02/26 02:55:33;;;;;;;0.30;0.30;;;;;;;6.13;100.00;100837.56;7387983;19;20010;-52
2023/02/26 02:58:08;;;;;;;0.15;0.15;;;;;;;6.16;100.00;100832.38;7386589;19;20126;-52
2023/02/26 03:00:48;;;;;;;0.35;0.32;;;;;;;6.23;100.00;100837.81;7384219;19;20011;-52
2023/02/26 03:03:20;;;;;;;0.30;0.30;;;;;;;6.27;100.00;100835.75;7390150;19;20066;-52
2023/02/26 03:05:48;;;;;;;1.08;1.08;;;;;;;6.32;100.00;100846.34;7388214;19;20482;-52
2023/02/26 03:08:19;;;;;;;0.98;0.75;;;;;;;6.40;100.00;100833.94;7392868;19;20014;-52
2023/02/26 03:10:46;;;;;;;0.47;0.47;;;;;;;6.49;100.00;100850.75;7394403;19;20011;-52
2023/02/26 03:13:18;;;;;;;0.40;0.40;;;;;;;6.60;100.00;100851.34;7396507;19;20014;-52
2023/02/26 03:15:51;;;;;;;0.30;0.30;;;;;;;6.62;100.00;100848.94;7398048;19;20027;-52
2023/02/26 03:18:49;;;;;;;0.30;0.30;;;;;;;6.75;100.00;100838.81;7395675;19;20006;-52
2023/02/26 03:21:26;;;;;;;0.75;0.70;;;;;;;6.89;100.00;100850.38;7397902;19;20015;-52
2023/02/26 03:23:56;;;;;;;0.47;0.47;;;;;;;6.69;100.00;100838.50;7393668;19;20016;-52
2023/02/26 03:26:39;;;;;;;0.67;0.67;;;;;;;6.78;100.00;100846.25;7393414;19;20013;-53
2023/02/26 03:29:18;;;;;;;0.35;0.35;;;;;;;6.82;100.00;100842.19;7392800;19;20404;-52
2023/02/26 03:31:58;;;;;;;0.73;0.73;;;;;;;6.87;100.00;100843.69;7394915;19;20017;-52
2023/02/26 03:34:50;;;;;;;3.67;0.47;;;;;;;6.92;100.00;100851.50;7395115;19;20006;-52
2023/02/26 03:37:25;;;;;;;0.20;0.20;;;;;;;6.92;100.00;100857.03;7394185;19;20327;-52
2023/02/26 03:39:57;;;;;;;0.35;0.35;;;;;;;6.83;100.00;100854.84;7391612;19;20018;-52
2023/02/26 03:42:36;;;;;;;1.20;1.17;;;;;;;6.79;100.00;100850.59;7397634;19;20403;-51
2023/02/26 03:45:23;;;;;;;0.10;0.10;;;;;;;6.69;100.00;100855.09;7395234;19;20747;-52
2023/02/26 03:47:52;;;;;;;0.20;0.20;;;;;;;6.64;100.00;100852.06;7392481;19;20016;-52
2023/02/26 03:50:41;;;;;;;0.47;0.47;;;;;;;6.60;100.00;100841.06;7393176;19;20010;-52
2023/02/26 03:53:24;;;;;;;0.30;0.30;;;;;;;6.53;100.00;100848.72;7395910;19;20021;-52
2023/02/26 03:56:00;;;;;;;0.30;0.22;;;;;;;6.48;100.00;100860.25;7391456;19;20355;-52
2023/02/26 03:58:36;;;;;;;0.68;0.55;;;;;;;6.38;100.00;100856.50;7393308;19;20407;-53
2023/02/26 04:01:27;;;;;;;0.40;0.40;;;;;;;6.18;100.00;100863.97;7392412;19;20015;-52
2023/02/26 04:04:02;;;;;;;0.55;0.52;;;;;;;6.18;100.00;100863.16;7394530;19;20027;-52
2023/02/26 04:06:29;;;;;;;4.18;1.98;;;;;;;6.57;100.00;100869.59;7392742;19;20010;-52
2023/02/26 04:08:56;;;;;;;0.93;0.65;;;;;;;2.68;100.00;100876.88;7391667;19;20026;-52
2023/02/26 04:11:24;;;;;;;0.22;0.22;;;;;;;1.33;100.00;100880.78;7392782;19;20014;-52
2023/02/26 04:13:51;;;;;;;0.47;0.47;;;;;;;1.57;100.00;100890.25;7391402;19;20006;-53
2023/02/26 04:16:18;;;;;;;0.30;0.30;;;;;;;1.06;100.00;100904.19;7391969;19;20075;-52
2023/02/26 04:18:45;;;;;;;0.40;0.40;;;;;;;1.00;100.00;100905.72;7389781;19;20002;-52
2023/02/26 04:21:17;;;;;;;0.50;0.50;;;;;;;1.01;100.00;100907.31;7391775;19;20029;-52
2023/02/26 04:23:44;;;;;;;1.10;0.32;;;;;;;1.02;100.00;100900.66;7393590;19;20035;-53
2023/02/26 04:26:12;;;;;;;0.22;0.22;;;;;;;0.97;100.00;100905.72;7395103;19;20034;-52
2023/02/26 04:28:40;;;;;;;1.45;0.52;;;;;;;0.92;100.00;100914.31;7390579;19;20082;-52
2023/02/26 04:31:07;;;;;;;0.82;0.75;;;;;;;1.33;100.00;100919.19;7389971;19;20134;-52
2023/02/26 04:33:33;;;;;;;1.05;0.82;;;;;;;1.19;100.00;100924.63;7397375;19;20042;-52
2023/02/26 04:36:00;;;;;;;5.25;0.85;;;;;;;1.38;100.00;100921.56;7391970;19;20011;-52
2023/02/26 04:38:27;;;;;;;0.60;0.60;;;;;;;1.12;100.00;100930.09;7396669;19;20368;-52
2023/02/26 04:40:54;;;;;;;1.95;1.25;;;;;;;1.11;100.00;100934.00;7394477;19;20014;-52
2023/02/26 04:43:20;;;;;;;0.85;0.85;;;;;;;1.30;100.00;100925.44;7395149;19;20007;-52
2023/02/26 04:45:56;;;;;;;1.17;0.30;;;;;;;1.18;100.00;100934.03;7394358;19;20003;-52
2023/02/26 04:48:22;;;;;;;1.33;1.23;;;;;;;1.63;100.00;100923.56;7389798;19;20010;-52
2023/02/26 04:50:48;;;;;;;0.45;0.45;;;;;;;1.37;100.00;100930.16;7390788;19;20019;-52
2023/02/26 04:53:14;;;;;;;0.70;0.70;;;;;;;1.82;100.00;100934.22;7394647;19;20006;-52
2023/02/26 04:55:41;;;;;;;0.75;0.70;;;;;;;1.99;100.00;100927.97;7391712;19;20010;-52
2023/02/26 04:58:07;;;;;;;0.40;0.40;;;;;;;2.07;100.00;100924.03;7392300;19;20464;-53
2023/02/26 05:00:35;;;;;;;0.68;0.38;;;;;;;2.35;100.00;100928.75;7386820;19;20042;-53
2023/02/26 05:03:01;;;;;;;0.77;0.65;;;;;;;2.22;100.00;100931.09;7389810;19;20018;-53
2023/02/26 05:05:27;;;;;;;0.90;0.70;;;;;;;2.21;100.00;100929.53;7390678;19;20010;-53
2023/02/26 05:07:55;;;;;;;0.82;0.82;;;;;;;2.22;100.00;100931.09;7389432;19;20014;-52
2023/02/26 05:10:22;;;;;;;2.58;1.23;;;;;;;2.25;100.00;100930.34;7386383;19;20384;-54
2023/02/26 05:12:48;;;;;;;0.52;0.52;;;;;;;2.26;100.00;100931.88;7390884;19;20011;-54
2023/02/26 05:15:15;;;;;;;0.70;0.65;;;;;;;2.24;100.00;100926.00;7390075;19;20011;-55
2023/02/26 05:17:42;;;;;;;0.20;0.20;;;;;;;2.20;100.00;100930.72;7389191;19;20037;-52
2023/02/26 05:20:09;;;;;;;0.30;0.30;;;;;;;2.05;100.00;100926.41;7388672;19;20077;-52
2023/02/26 05:22:37;;;;;;;0.32;0.32;;;;;;;1.05;100.00;100941.03;7392793;19;20374;-55
2023/02/26 05:25:05;;;;;;;0.20;0.10;;;;;;;0.64;100.00;100943.16;7389898;19;20416;-52
2023/02/26 05:27:32;;;;;;;0.68;0.68;;;;;;;0.50;100.00;100947.72;7393611;19;20022;-53
2023/02/26 05:29:58;;;;;;;0.65;0.65;;;;;;;0.73;100.00;100945.56;7390624;19;20459;-53
2023/02/26 05:32:24;;;;;;;0.73;0.73;;;;;;;0.60;100.00;100947.03;7393423;19;20026;-53
2023/02/26 05:34:50;;;;;;;0.47;0.47;;;;;;;0.58;100.00;100949.38;7391067;19;20394;-54
2023/02/26 05:37:17;;;;;;;1.65;0.52;;;;;;;0.46;100.00;100957.88;7391028;19;20081;-52
2023/02/26 05:39:43;;;;;;;0.32;0.32;;;;;;;0.59;100.00;100961.88;7389209;19;20010;-53
2023/02/26 05:42:09;;;;;;;0.40;0.40;;;;;;;0.87;100.00;100959.34;7393162;19;20036;-53
2023/02/26 05:44:35;;;;;;;2.08;0.52;;;;;;;1.16;100.00;100961.06;7389939;19;20038;-54
2023/02/26 05:47:02;;;;;;;0.40;0.40;;;;;;;1.00;100.00;100962.53;7390419;19;20022;-52
2023/02/26 05:49:28;;;;;;;21.33;1.80;;;;;;;0.99;100.00;100966.47;7389899;19;20014;-52
2023/02/26 05:51:54;;;;;;;1.45;0.32;;;;;;;1.34;100.00;100970.16;7391920;19;20480;-52
2023/02/26 05:54:20;;;;;;;0.28;0.28;;;;;;;1.04;100.00;100972.34;7389307;19;20010;-52
2023/02/26 05:56:46;;;;;;;0.40;0.40;;;;;;;1.02;100.00;100974.69;7390213;19;20020;-53
2023/02/26 05:59:12;;;;;;;0.30;0.30;;;;;;;1.12;100.00;100979.47;7390077;19;20018;-54
2023/02/26 06:01:41;;;;;;;3.70;1.15;;;;;;;1.48;100.00;100981.19;7388077;19;20030;-55
2023/02/26 06:04:08;;;;;;;4.40;0.68;;;;;;;1.39;100.00;100980.75;7390485;19;20492;-55
2023/02/26 06:06:34;;;;;;;1.58;0.77;;;;;;;2.34;100.00;100976.66;7392438;19;20022;-52
2023/02/26 06:09:01;;;;;;;0.35;0.32;;;;;;;1.56;100.00;100987.47;7385938;19;20011;-52
2023/02/26 06:11:28;;;;;;;0.30;0.28;;;;;;;1.43;100.00;100989.78;7388317;19;20439;-54
2023/02/26 06:13:55;;;;;;;0.57;0.57;;;;;;;1.51;100.00;100988.66;7391645;19;20038;-54
2023/02/26 06:16:21;;;;;;;12.40;0.70;;;;;;;2.11;100.00;100982.53;7392422;19;20015;-54
2023/02/26 06:18:48;;;;;;;0.35;0.35;;;;;;;1.60;100.00;100977.31;7388049;19;20006;-54
2023/02/26 06:21:15;;;;;;;0.43;0.43;;;;;;;3.85;100.00;100979.00;7389041;19;20003;-54
2023/02/26 06:23:41;;;;;;;0.20;0.20;;;;;;;2.47;100.00;100981.34;7394212;19;20018;-55
2023/02/26 06:26:08;;;;;;;0.43;0.43;;;;;;;3.86;100.00;100977.78;7389039;19;20011;-54
2023/02/26 06:28:34;;;;;;;0.40;0.40;;;;;;;2.99;100.00;100980.50;7392125;19;20041;-55
2023/02/26 06:31:00;;;;;;;0.20;0.20;;;;;;;2.81;100.00;100985.28;7388999;19;20026;-54
2023/02/26 06:33:27;;;;;;;0.30;0.30;;;;;;;3.71;100.00;100992.81;7391610;19;20014;-54
2023/02/26 06:35:54;;;;;;;0.30;0.30;;;;;;;2.85;100.00;100988.81;7387620;19;20753;-54
2023/02/26 06:38:20;;;;;;;0.47;0.43;;;;;;;3.28;100.00;100996.94;7385829;19;20015;-55
2023/02/26 06:40:47;;;;;;;0.70;0.70;;;;;;;3.32;100.00;101003.22;7389237;19;20015;-54
2023/02/26 06:43:13;;;;;;;0.50;0.50;;;;;;;3.70;100.00;100999.53;7397106;19;20082;-54
2023/02/26 06:45:40;;;;;;;0.63;0.55;;;;;;;2.23;100.00;100995.91;7399187;19;20070;-54
2023/02/26 06:48:06;;;;;;;0.93;0.88;;;;;;;1.87;100.00;101013.47;7397169;19;20462;-54
2023/02/26 06:50:32;;;;;;;9.02;1.20;;;;;;;4.17;100.00;101012.66;7398323;19;20019;-50
2023/02/26 06:52:58;;;;;;;0.45;0.45;;;;;;;3.66;100.00;101018.06;7399028;19;20407;-53
2023/02/26 06:55:25;;;;;;;0.75;0.73;;;;;;;3.99;100.00;101009.22;7395793;19;20357;-54
2023/02/26 06:57:56;;;;;;;0.20;0.20;;;;;;;4.80;100.00;101018.84;7395431;19;20011;-53
2023/02/26 07:00:24;;;;;;;0.43;0.43;;;;;;;3.85;100.00;101009.31;7393280;19;20017;-54
2023/02/26 07:02:51;;;;;;;0.30;0.30;;;;;;;3.70;100.00;101024.34;7397345;19;20463;-53
2023/02/26 07:05:18;;;;;;;0.10;0.10;;;;;;;3.04;100.00;101032.38;7395722;19;20007;-53
2023/02/26 07:07:44;;;;;;;0.20;0.20;;;;;;;2.08;100.00;101030.03;7395903;19;20091;-53
2023/02/26 07:10:11;;;;;;;2.53;0.55;;;;;;;1.97;100.00;101023.72;7395703;19;20015;-54
2023/02/26 07:12:37;;;;;;;10.30;1.13;;;;;;;1.92;100.00;101033.13;7398366;19;20035;-53
2023/02/26 07:15:05;;;;;;;0.35;0.35;;;;;;;1.88;100.00;101037.81;7395866;19;20013;-53
2023/02/26 07:17:31;;;;;;;1.95;0.50;;;;;;;2.37;100.00;101031.63;7399378;19;20011;-53
2023/02/26 07:19:57;;;;;;;9.20;0.50;;;;;;;2.19;100.00;101041.78;7393033;19;20006;-53
2023/02/26 07:22:24;;;;;;;0.30;0.30;;;;;;;2.07;100.00;101036.69;7397098;19;20014;-54
2023/02/26 07:24:50;;;;;;;0.40;0.40;;;;;;;2.44;100.00;101042.63;7396087;19;20034;-53
2023/02/26 07:27:16;;;;;;;0.68;0.50;;;;;;;2.08;100.00;101036.28;7396593;19;20581;-54
2023/02/26 07:29:43;;;;;;;0.30;0.30;;;;;;;1.87;100.00;101051.91;7393856;19;20018;-54
2023/02/26 07:32:09;;;;;;;0.20;0.20;;;;;;;1.52;100.00;101053.34;7395605;19;20090;-53
2023/02/26 07:34:35;;;;;;;5.38;0.52;;;;;;;1.66;100.00;101051.84;7392143;19;20010;-53
2023/02/26 07:37:01;;;;;;;4.97;1.10;;;;;;;1.66;100.00;101063.63;7394391;19;20751;-53
2023/02/26 07:39:27;;;;;;;0.40;0.40;;;;;;;5.69;100.00;101053.44;7397277;19;20075;-53
2023/02/26 07:41:53;;;;;;;0.20;0.20;;;;;;;3.70;100.00;101049.13;7397794;19;20023;-54
2023/02/26 07:44:21;;;;;;;0.15;0.15;;;;;;;5.65;100.00;101062.97;7394438;19;20011;-54
2023/02/26 07:46:47;;;;;;;0.20;0.20;;;;;;;6.07;100.00;101052.16;7394103;19;20082;-53
2023/02/26 07:49:13;;;;;;;0.40;0.35;;;;;;;3.75;100.00;101054.19;7394596;19;20015;-53
2023/02/26 07:51:41;;;;;;;0.32;0.32;;;;;;;2.61;100.00;101052.84;7392927;19;20082;-53
2023/02/26 07:54:07;;;;;;;0.30;0.30;;;;;;;2.49;100.00;101049.72;7396220;19;20054;-53
2023/02/26 07:56:33;;;;;;;0.10;0.10;;;;;;;3.04;100.00;101064.63;7394714;19;20021;-53
2023/02/26 07:59:00;;;;;;;8.25;0.85;;;;;;;5.61;100.00;101060.22;7397983;19;20028;-53
2023/02/26 08:01:26;;;;;;;1.10;1.00;;;;;;;6.66;100.00;101062.78;7398019;19;20014;-53
2023/02/26 08:03:52;;;;;;;0.22;0.22;;;;;;;7.48;100.00;101054.59;7393987;19;20018;-54
2023/02/26 08:06:18;;;;;;;0.30;0.30;;;;;;;7.81;100.00;101063.84;7393947;19;20098;-53
2023/02/26 08:08:44;;;;;;;0.30;0.30;;;;;;;7.99;100.00;101072.59;7395611;19;20018;-53
2023/02/26 08:11:10;;;;;;;1.70;1.45;;;;;;;8.14;100.00;101073.84;7396428;19;20352;-53
2023/02/26 08:13:37;;;;;;;0.77;0.77;;;;;;;7.42;100.00;101073.72;7397076;19;20011;-53
2023/02/26 08:16:03;;;;;;;0.20;0.20;;;;;;;5.49;100.00;101085.63;7395090;19;20359;-54
2023/02/26 08:18:29;;;;;;;0.30;0.30;;;;;;;7.85;100.00;101067.34;7397814;19;20463;-54
2023/02/26 08:20:56;;;;;;;0.30;0.30;;;;;;;8.09;100.00;101079.91;7394501;19;20016;-54
2023/02/26 08:23:22;;;;;;;6.97;0.68;;;;;;;8.48;100.00;101082.63;7397295;19;20006;-54
2023/02/26 08:25:49;;;;;;;0.47;0.47;;;;;;;8.62;100.00;101093.41;7396789;19;20010;-56
2023/02/26 08:28:15;;;;;;;0.17;0.17;;;;;;;8.74;100.00;101086.41;7395259;19;20006;-56
2023/02/26 08:30:41;;;;;;;0.20;0.20;;;;;;;8.70;100.00;101100.38;7395926;19;21006;-55
2023/02/26 08:33:07;;;;;;;0.43;0.43;;;;;;;8.99;100.00;101101.25;7394314;19;20007;-54
2023/02/26 08:35:33;;;;;;;1.77;0.68;;;;;;;9.23;100.00;101095.47;7396289;19;20018;-54
2023/02/26 08:38:00;;;;;;;0.50;0.50;;;;;;;9.19;100.00;101098.38;7396654;19;20021;-54
2023/02/26 08:40:26;;;;;;;5.88;0.45;;;;;;;9.36;100.00;101101.91;7394814;19;20014;-53
2023/02/26 08:42:52;;;;;;;0.20;0.20;;;;;;;9.27;100.00;101105.28;7397237;19;20013;-54
2023/02/26 08:45:18;;;;;;;0.65;0.57;;;;;;;9.09;100.00;101108.56;7396559;19;20670;-54
2023/02/26 08:47:44;;;;;;;0.22;0.22;;;;;;;9.62;100.00;101114.69;7396008;19;20025;-54
2023/02/26 08:50:11;;;;;;;0.30;0.30;;;;;;;9.85;100.00;101109.69;7395201;19;20027;-54
2023/02/26 08:52:37;;;;;;;0.10;0.10;;;;;;;10.09;100.00;101121.31;7395226;19;20010;-54
2023/02/26 08:55:04;;;;;;;0.47;0.47;;;;;;;10.30;100.00;101131.91;7396854;19;20010;-54
2023/02/26 08:57:30;;;;;;;0.20;0.20;;;;;;;10.47;100.00;101130.56;7392413;19;20014;-53
2023/02/26 08:59:56;;;;;;;0.95;0.40;;;;;;;10.51;100.00;101142.38;7391357;19;20014;-54
2023/02/26 09:02:22;;;;;;;0.30;0.30;;;;;;;10.71;100.00;101150.53;7394414;19;20014;-54
2023/02/26 09:04:48;;;;;;;0.80;0.75;;;;;;;10.87;100.00;101147.63;7391070;19;20006;-54
2023/02/26 09:07:14;;;;;;;0.40;0.38;;;;;;;10.67;100.00;101149.88;7391878;19;20011;-54
2023/02/26 09:09:41;;;;;;;0.60;0.60;;;;;;;10.83;100.00;101163.69;7391215;19;20015;-54
2023/02/26 09:12:07;;;;;;;0.50;0.50;;;;;;;11.12;100.00;101156.00;7393026;19;20066;-54
2023/02/26 09:14:33;;;;;;;0.63;0.47;;;;;;;11.15;100.00;101148.75;7392386;19;20350;-54
2023/02/26 09:16:59;;;;;;;0.98;0.98;;;;;;;11.13;100.00;101154.00;7391068;19;20583;-54
2023/02/26 09:19:25;;;;;;;16.38;0.95;;;;;;;11.13;100.00;101156.78;7389651;19;20010;-54
2023/02/26 09:21:51;;;;;;;0.30;0.30;;;;;;;10.89;100.00;101152.78;7393561;19;20014;-54
2023/02/26 09:24:18;;;;;;;0.10;0.10;;;;;;;10.97;100.00;101162.47;7395462;19;20014;-55
2023/02/26 09:26:44;;;;;;;7.80;1.33;;;;;;;10.74;100.00;101171.16;7395650;19;20325;-54
2023/02/26 09:29:12;;;;;;;0.20;0.20;;;;;;;11.03;100.00;101172.63;7393261;19;20006;-55
2023/02/26 09:31:38;;;;;;;0.22;0.22;;;;;;;11.00;100.00;101167.91;7393068;19;20006;-54
2023/02/26 09:34:04;;;;;;;0.20;0.20;;;;;;;8.75;100.00;101169.28;7390327;19;20410;-54
2023/02/26 09:36:31;;;;;;;0.30;0.30;;;;;;;10.70;100.00;101178.84;7390260;19;20014;-55
2023/02/26 09:38:57;;;;;;;0.25;0.25;;;;;;;10.87;100.00;101174.75;7392512;19;20007;-54
2023/02/26 09:41:32;;;;;;;4.18;0.30;;;;;;;9.98;100.00;101179.31;7393474;19;20062;-54
2023/02/26 09:44:22;;;;;;;0.30;0.30;;;;;;;7.62;100.00;101168.75;7388253;19;20014;-54
2023/02/26 09:47:16;;;;;;;0.35;0.32;;;;;;;7.46;100.00;101173.41;7389819;19;20014;-54
2023/02/26 09:50:09;;;;;;;0.20;0.20;;;;;;;10.36;100.00;101185.00;7394372;19;20010;-54
2023/02/26 09:52:53;;;;;;;0.28;0.20;;;;;;;10.95;100.00;101176.06;7391960;19;20011;-54
2023/02/26 09:55:27;;;;;;;1.65;1.00;;;;;;;11.11;100.00;101185.09;7389889;19;20561;-54
2023/02/26 09:58:05;;;;;;;0.50;0.40;;;;;;;11.33;100.00;101180.38;7389271;19;20011;-54
2023/02/26 10:00:45;;;;;;;0.43;0.43;;;;;;;11.54;100.00;101184.50;7387597;19;20070;-54
2023/02/26 10:03:30;;;;;;;0.25;0.25;;;;;;;11.68;100.00;101192.41;7393688;19;20021;-54
2023/02/26 10:06:14;;;;;;;0.40;0.40;;;;;;;11.90;100.00;101196.03;7390213;19;20033;-54
2023/02/26 10:09:05;;;;;;;1.38;0.40;;;;;;;9.51;100.00;101200.41;7390212;19;20014;-54
2023/02/26 10:12:02;;;;;;;0.50;0.30;;;;;;;11.09;100.00;101187.53;7390746;19;20022;-54
2023/02/26 10:14:34;;;;;;;7.13;0.50;;;;;;;11.53;100.00;101199.66;7391235;19;20015;-53
2023/02/26 10:17:10;;;;;;;0.22;0.20;;;;;;;11.58;100.00;101203.91;7387367;19;20021;-54
2023/02/26 10:19:41;;;;;;;0.10;0.10;;;;;;;10.79;100.00;101218.75;7386776;19;20074;-54
2023/02/26 10:22:38;;;;;;;0.30;0.30;;;;;;;8.42;100.00;101223.16;7388654;19;20014;-54
2023/02/26 10:25:32;;;;;;;4.47;0.50;;;;;;;6.68;100.00;101229.22;7389843;19;20022;-54
2023/02/26 10:28:09;;;;;;;0.40;0.40;;;;;;;6.22;100.00;101238.06;7389102;19;20010;-54
2023/02/26 10:30:42;;;;;;;0.20;0.20;;;;;;;7.45;100.00;101238.38;7390619;19;20037;-53
2023/02/26 10:33:37;;;;;;;8.10;0.95;;;;;;;10.83;100.00;101241.72;7392064;19;20368;-54
2023/02/26 10:36:11;;;;;;;10.88;0.47;;;;;;;11.28;100.00;101255.50;7390333;19;20007;-54
2023/02/26 10:38:37;;;;;;;1.08;1.05;;;;;;;11.45;100.00;101251.34;7393420;19;20007;-53
2023/02/26 10:41:12;;;;;;;0.63;0.43;;;;;;;10.97;100.00;101257.25;7390666;19;20011;-54
2023/02/26 10:43:45;;;;;;;0.30;0.30;;;;;;;10.62;100.00;101254.28;7392666;19;20018;-54
2023/02/26 10:46:32;;;;;;;0.43;0.43;;;;;;;11.34;100.00;101254.47;7392821;19;20006;-54
2023/02/26 10:49:31;;;;;;;0.15;0.15;;;;;;;11.64;100.00;101255.91;7389125;19;20022;-54
2023/02/26 10:52:08;;;;;;;2.13;1.10;;;;;;;11.74;100.00;101248.41;7390325;19;20110;-54
2023/02/26 10:54:38;;;;;;;0.40;0.40;;;;;;;11.71;100.00;101261.28;7389095;19;20014;-54
2023/02/26 10:57:15;;;;;;;0.20;0.20;;;;;;;11.63;100.00;101261.94;7387088;19;20021;-53
2023/02/26 10:59:42;;;;;;;0.20;0.10;;;;;;;11.56;100.00;101262.16;7387021;19;20011;-53
2023/02/26 11:02:30;;;;;;;4.03;0.60;;;;;;;11.61;100.00;101270.72;7390521;19;20031;-54
2023/02/26 11:04:56;;;;;;;0.30;0.30;;;;;;;11.57;100.00;101261.69;7391638;19;20015;-54
2023/02/26 11:07:26;;;;;;;1.13;0.65;;;;;;;10.30;100.00;101259.19;7388167;19;20042;-54
2023/02/26 11:09:53;;;;;;;0.67;0.67;;;;;;;11.96;98.71;101260.44;7388819;19;20015;-54
2023/02/26 11:12:22;;;;;;;6.13;0.85;;;;;;;12.07;97.07;101272.00;7390278;19;20357;-54
2023/02/26 11:14:49;;;;;;;0.68;0.63;;;;;;;12.21;96.02;101257.56;7389628;19;20017;-54
2023/02/26 11:17:22;;;;;;;0.13;0.13;;;;;;;13.08;89.36;101265.94;7388302;19;20010;-54
2023/02/26 11:19:57;;;;;;;1.38;0.73;;;;;;;13.21;85.63;101253.41;7387239;19;20018;-54
2023/02/26 11:22:31;;;;;;;0.47;0.30;;;;;;;13.62;83.50;101261.31;7388507;19;20006;-54
2023/02/26 11:24:59;;;;;;;0.50;0.40;;;;;;;13.53;81.11;101266.94;7392749;19;20030;-55
2023/02/26 11:27:31;;;;;;;0.38;0.38;;;;;;;12.85;80.76;101269.97;7386941;19;20011;-55
2023/02/26 11:30:02;;;;;;;0.30;0.30;;;;;;;12.01;88.38;101266.22;7394776;19;20006;-55
2023/02/26 11:32:36;;;;;;;0.15;0.10;;;;;;;11.25;94.22;101278.69;7396521;19;20462;-54
2023/02/26 11:35:07;;;;;;;3.03;0.38;;;;;;;11.58;90.42;101263.28;7395169;19;20070;-54
2023/02/26 11:37:36;;;;;;;2.00;0.65;;;;;;;11.56;90.26;101276.91;7394911;19;20333;-54
2023/02/26 11:40:12;;;;;;;2.40;0.55;;;;;;;12.81;84.23;101269.34;7393825;19;20013;-55
2023/02/26 11:42:48;;;;;;;3.05;0.55;;;;;;;13.43;76.75;101268.13;7397201;19;20021;-55